Terminal Aerodrome Forecast
Issued by NWS

Home | Current Version | Previous Version | Text Only | Print | Product List | Glossary On
Versions: 1 2 3 4 5 6 7 8 9 10 11 12 13 14 15 16 17 18 19
909
FTUS43 KICT 251720
TAFHUT
TAF
KHUT 251720Z 2518/2618 18014G20KT P6SM FEW250
     FM260100 15012KT P6SM FEW200
     FM261700 20017G25KT P6SM SCT200=

USA.gov is the U.S. government's official web portal to all federal, state and local government web resources and services.